Leigh Ann Moran — WDI3096 — position and weather

sailwx.info

Track history (hours):
 
Tides and Currents Weather Stations Pressure Air Temp Water Temp Dewpoint Dewpoint Depression Visibility Wind Speed Wind Dir Waves Ship Positions

Leigh Ann Moran

Owner: Moran Towing Corporation, New Canaan, CT. More information available from US FCC via Universal Licensing System and Coast Guard Vessel Documentation Center.

Last reported at 2017-Nov-18 08:24 UTC. Time now 2017-Nov-20 04:14 UTC.
Position N 25°21' W 080°01'.

Length 176 m; draft 7.5 m.

Type: Tug. MMSI: 338203000.

Date/timePositionNaut miles runAvg speedWind from/ knotsBaromVisibWave heightAir tempDewpointWater temp
2017-Nov-18 08:24N 25°21' W 080°01'4 9.2
2017-Nov-18 07:57N 25°25' W 080°01'4 9.2
2017-Nov-18 07:30N 25°29' W 080°00'5 9.2
2017-Nov-18 07:00N 25°34' W 080°00'5 9.4
2017-Nov-18 06:30N 25°38' W 080°00'5 9.8
2017-Nov-18 06:00N 25°43' W 080°00'511.0
2017-Nov-18 05:30N 25°49' W 080°01'612.3
2017-Nov-18 05:00N 25°55' W 080°02'510.9
2017-Nov-18 04:30N 26°00' W 080°02'5 9.4
2017-Nov-18 04:00N 26°05' W 080°04'3 6.3
2017-Nov-18 03:30N 26°06' W 080°07'0 0.0
2017-Nov-18 03:00N 26°06' W 080°07'0 0.0
2017-Nov-18 02:25N 26°06' W 080°07'0 0.0
2017-Nov-18 01:55N 26°06' W 080°07'0 0.0
2017-Nov-18 01:25N 26°06' W 080°07'0 0.0
2017-Nov-18 00:55N 26°06' W 080°07'0 0.0
2017-Nov-18 00:25N 26°06' W 080°07'0 0.0
2017-Nov-17 23:58N 26°06' W 080°07'0 0.0
2017-Nov-17 23:28N 26°06' W 080°07'0 0.0
2017-Nov-17 22:58N 26°06' W 080°07'0 0.0
2017-Nov-17 22:28N 26°06' W 080°07'0 0.0
2017-Nov-17 21:58N 26°06' W 080°07'0 0.0
2017-Nov-17 21:28N 26°06' W 080°07'0 0.0
2017-Nov-17 20:58N 26°06' W 080°07'0 0.0
2017-Nov-17 20:28N 26°06' W 080°07'0 0.0
2017-Nov-17 19:58N 26°06' W 080°07'0 0.0
2017-Nov-17 19:28N 26°06' W 080°07'0 0.0
2017-Nov-17 18:58N 26°06' W 080°07'0 0.0
2017-Nov-17 18:28N 26°06' W 080°07'0 0.0
2017-Nov-17 17:58N 26°06' W 080°07'0 0.0
2017-Nov-17 17:19N 26°06' W 080°07'0 0.0
2017-Nov-17 16:49N 26°06' W 080°07'0 0.0
2017-Nov-17 16:22N 26°06' W 080°07'0 0.0
2017-Nov-17 15:52N 26°06' W 080°07'0 0.0
2017-Nov-17 15:22N 26°06' W 080°07'0 0.0
2017-Nov-17 14:52N 26°06' W 080°07'0 0.0
2017-Nov-17 14:22N 26°06' W 080°07'0 0.0
2017-Nov-17 13:52N 26°06' W 080°07'0 0.0
2017-Nov-17 13:25N 26°06' W 080°07'0 0.0
2017-Nov-17 12:52N 26°06' W 080°07'0 0.0
2017-Nov-17 12:25N 26°06' W 080°07'0 0.0
2017-Nov-17 11:55N 26°06' W 080°07'0 0.0
2017-Nov-17 11:25N 26°06' W 080°07'0 0.0
2017-Nov-17 10:55N 26°06' W 080°07'0 0.0
2017-Nov-17 10:25N 26°06' W 080°07'0 0.0
2017-Nov-17 09:55N 26°06' W 080°07'0 0.0
2017-Nov-17 09:28N 26°06' W 080°07'0 0.0
2017-Nov-17 08:58N 26°06' W 080°07'0 0.0
2017-Nov-17 08:28N 26°06' W 080°07'0 0.0
2017-Nov-17 07:58N 26°06' W 080°07'0 0.0
2017-Nov-17 07:28N 26°06' W 080°07'0 0.0
2017-Nov-17 06:58N 26°06' W 080°07'0 0.0
2017-Nov-17 06:28N 26°06' W 080°07'0 0.0
2017-Nov-17 05:58N 26°06' W 080°07'0 0.0
2017-Nov-17 05:28N 26°06' W 080°07'0 0.0
2017-Nov-17 04:58N 26°06' W 080°07'0 0.0
2017-Nov-17 04:28N 26°06' W 080°07'0 0.0
2017-Nov-17 03:58N 26°06' W 080°07'0 0.0
2017-Nov-17 03:19N 26°06' W 080°07'0 0.0
2017-Nov-17 02:49N 26°06' W 080°07'0 0.0
2017-Nov-17 02:28N 26°06' W 080°07'0 0.0
2017-Nov-17 01:46N 26°06' W 080°07'0 0.0
2017-Nov-17 01:22N 26°06' W 080°07'0 0.0
2017-Nov-17 00:52N 26°06' W 080°07'0 0.0
2017-Nov-17 00:22N 26°06' W 080°07'0 0.0
2017-Nov-16 23:52N 26°06' W 080°07'0 0.0
2017-Nov-16 23:22N 26°06' W 080°07'0 0.0
2017-Nov-16 22:55N 26°06' W 080°07'0 0.0
2017-Nov-16 22:29N 26°06' W 080°07'0 0.9
2017-Nov-16 22:00N 26°06' W 080°07'4 7.0
2017-Nov-16 21:30N 26°06' W 080°03'3 6.6
2017-Nov-16 21:00N 26°05' W 079°59'3 5.0
2017-Nov-16 20:30N 26°03' W 080°02'0 0.7
2017-Nov-16 20:00N 26°04' W 080°02'0 0.5
2017-Nov-16 19:30N 26°04' W 080°02'0 0.6
2017-Nov-16 19:00N 26°04' W 080°02'0 0.2
2017-Nov-16 18:30N 26°03' W 080°02'1 2.1
2017-Nov-16 18:00N 26°04' W 080°02'1 2.2
2017-Nov-16 17:30N 26°06' W 080°03'1 1.3
2017-Nov-16 17:00N 26°06' W 080°02'1 1.1
2017-Nov-16 16:30N 26°06' W 080°02'3 5.2
2017-Nov-16 16:00N 26°03' W 080°02'4 8.9
2017-Nov-16 15:30N 25°59' W 080°01'5 9.1
2017-Nov-16 15:00N 25°54' W 080°01'510.9
2017-Nov-16 14:30N 25°49' W 080°00'611.7
2017-Nov-16 14:00N 25°43' W 079°60'612.0
2017-Nov-16 13:30N 25°37' W 079°59'712.2
2017-Nov-16 12:58N 25°30' W 079°60'  
2017-Nov-10 23:01N 27°37' W 082°41'7 9.8
2017-Nov-10 22:19N 27°41' W 082°35'310.1
2017-Nov-10 22:00N 27°43' W 082°32'4 8.2
2017-Nov-10 21:30N 27°47' W 082°33'4 6.8
2017-Nov-10 20:51N 27°52' W 082°33'0 0.5
2017-Nov-10 20:27N 27°52' W 082°33'0 0.0
2017-Nov-10 19:57N 27°52' W 082°33'0 0.0
2017-Nov-10 19:27N 27°52' W 082°33'0 0.0
2017-Nov-10 18:57N 27°52' W 082°33'0 0.0
2017-Nov-10 18:21N 27°52' W 082°33'0 0.0
2017-Nov-10 17:57N 27°52' W 082°33'0 0.0
2017-Nov-10 17:27N 27°52' W 082°33'0 0.0
2017-Nov-10 16:57N 27°52' W 082°33'0 0.0
2017-Nov-10 16:03N 27°52' W 082°33'0 0.0
2017-Nov-10 15:39N 27°52' W 082°33'0 0.0
2017-Nov-10 15:27N 27°52' W 082°33'0 0.0
2017-Nov-10 11:12N 27°52' W 082°33'0 0.0
2017-Nov-10 09:30N 27°52' W 082°33'0 0.0
2017-Nov-10 08:42N 27°52' W 082°33'0 0.0
2017-Nov-10 07:48N 27°52' W 082°33'0 0.0
2017-Nov-10 07:30N 27°52' W 082°33'0 0.0
2017-Nov-10 07:00N 27°52' W 082°33'0 0.0
2017-Nov-10 06:18N 27°52' W 082°33'0 0.0
2017-Nov-10 05:48N 27°52' W 082°33'0 0.0
2017-Nov-10 05:30N 27°52' W 082°33'0 0.0
2017-Nov-10 04:36N 27°52' W 082°33'0 0.0
2017-Nov-10 04:30N 27°52' W 082°33'0 0.0
2017-Nov-10 03:54N 27°52' W 082°33'0 0.0
2017-Nov-10 03:18N 27°52' W 082°33'0 0.0
2017-Nov-10 02:45N 27°52' W 082°33'0 0.0
2017-Nov-10 02:29N 27°52' W 082°33'0 0.3
2017-Nov-10 02:00N 27°52' W 082°33'1 3.0
2017-Nov-10 01:30N 27°50' W 082°34'3 5.9
2017-Nov-10 01:00N 27°47' W 082°33'510.4
2017-Nov-10 00:30N 27°48' W 082°28'510.3
2017-Nov-10 00:00N 27°53' W 082°26'2 3.4
2017-Nov-09 23:30N 27°55' W 082°27'0 0.4
2017-Nov-09 22:59N 27°55' W 082°27'0 0.0
2017-Nov-09 22:29N 27°55' W 082°27'0 0.0
2017-Nov-09 21:59N 27°55' W 082°27'0 0.0
2017-Nov-09 21:29N 27°55' W 082°27'0 0.0
2017-Nov-09 20:59N 27°55' W 082°27'0 0.0
2017-Nov-09 20:29N 27°55' W 082°27'0 0.0
2017-Nov-09 19:59N 27°55' W 082°27'0 0.0
2017-Nov-09 19:29N 27°55' W 082°27'0 0.0
2017-Nov-09 18:59N 27°55' W 082°27'0 0.0
2017-Nov-09 18:29N 27°55' W 082°27'0 0.0
2017-Nov-09 17:59N 27°55' W 082°27'0 0.0
2017-Nov-09 17:29N 27°55' W 082°27'0 0.0
2017-Nov-09 16:59N 27°55' W 082°27'0 0.0
2017-Nov-09 16:29N 27°55' W 082°27'0 0.0
2017-Nov-09 15:59N 27°55' W 082°27'0 0.0
2017-Nov-09 15:29N 27°55' W 082°27'0 0.0
2017-Nov-09 14:59N 27°55' W 082°27'0 0.0
2017-Nov-09 14:26N 27°55' W 082°27'0 0.0
2017-Nov-09 13:59N 27°55' W 082°27'0 0.0
2017-Nov-09 13:29N 27°55' W 082°27'0 0.0
2017-Nov-09 12:59N 27°55' W 082°27'0 0.0
2017-Nov-09 12:29N 27°55' W 082°27'0 0.0
2017-Nov-09 11:59N 27°55' W 082°27'0 0.0
2017-Nov-09 11:29N 27°55' W 082°27'0 0.0
2017-Nov-09 10:59N 27°55' W 082°27'0 0.0
2017-Nov-09 10:29N 27°55' W 082°27'0 0.0
2017-Nov-09 09:59N 27°55' W 082°27'0 0.0
2017-Nov-09 09:29N 27°55' W 082°27'0 0.0
2017-Nov-09 08:59N 27°55' W 082°27'0 0.0
2017-Nov-09 08:29N 27°55' W 082°27'0 0.0
2017-Nov-09 07:59N 27°55' W 082°27'0 0.0
2017-Nov-09 07:29N 27°55' W 082°27'0 0.0
2017-Nov-09 06:59N 27°55' W 082°27'0 0.0
2017-Nov-09 06:29N 27°55' W 082°27'0 0.0
2017-Nov-09 05:59N 27°55' W 082°27'0 0.0
2017-Nov-09 05:31N 27°55' W 082°27'1 2.9
2017-Nov-09 05:00N 27°53' W 082°26'510.0
2017-Nov-09 04:29N 27°48' W 082°28'5 9.5
2017-Nov-09 04:00N 27°45' W 082°31'510.4
2017-Nov-09 03:30N 27°41' W 082°35'510.7
2017-Nov-09 03:00N 27°37' W 082°39'510.7
2017-Nov-09 02:30N 27°36' W 082°45'510.8
2017-Nov-09 02:00N 27°36' W 082°51'611.0
2017-Nov-09 01:30N 27°36' W 082°57'20 9.9
2017-Nov-08 23:30N 27°42' W 083°19'  
Track history (hours):
 
Tides and Currents Weather Stations Pressure Air Temp Water Temp Dewpoint Dewpoint Depression Visibility Wind Speed Wind Dir Waves Ship Positions

Leigh Ann Moran

Owner: Moran Towing Corporation, New Canaan, CT. More information available from US FCC via Universal Licensing System and Coast Guard Vessel Documentation Center.

Last reported at 2017-Nov-18 08:24 UTC. Time now 2017-Nov-20 04:14 UTC.
Position N 25°21' W 080°01'.

Length 176 m; draft 7.5 m.

Type: Tug. MMSI: 338203000.

Date/timePositionNaut miles runAvg speedWind from/ knotsBaromVisibWave heightAir tempDewpointWater temp
2017-Nov-18 08:24N 25°21' W 080°01'4 9.2
2017-Nov-18 07:57N 25°25' W 080°01'4 9.2
2017-Nov-18 07:30N 25°29' W 080°00'5 9.2
2017-Nov-18 07:00N 25°34' W 080°00'5 9.4
2017-Nov-18 06:30N 25°38' W 080°00'5 9.8
2017-Nov-18 06:00N 25°43' W 080°00'511.0
2017-Nov-18 05:30N 25°49' W 080°01'612.3
2017-Nov-18 05:00N 25°55' W 080°02'510.9
2017-Nov-18 04:30N 26°00' W 080°02'5 9.4
2017-Nov-18 04:00N 26°05' W 080°04'3 6.3
2017-Nov-18 03:30N 26°06' W 080°07'0 0.0
2017-Nov-18 03:00N 26°06' W 080°07'0 0.0
2017-Nov-18 02:25N 26°06' W 080°07'0 0.0
2017-Nov-18 01:55N 26°06' W 080°07'0 0.0
2017-Nov-18 01:25N 26°06' W 080°07'0 0.0
2017-Nov-18 00:55N 26°06' W 080°07'0 0.0
2017-Nov-18 00:25N 26°06' W 080°07'0 0.0
2017-Nov-17 23:58N 26°06' W 080°07'0 0.0
2017-Nov-17 23:28N 26°06' W 080°07'0 0.0
2017-Nov-17 22:58N 26°06' W 080°07'0 0.0
2017-Nov-17 22:28N 26°06' W 080°07'0 0.0
2017-Nov-17 21:58N 26°06' W 080°07'0 0.0
2017-Nov-17 21:28N 26°06' W 080°07'0 0.0
2017-Nov-17 20:58N 26°06' W 080°07'0 0.0
2017-Nov-17 20:28N 26°06' W 080°07'0 0.0
2017-Nov-17 19:58N 26°06' W 080°07'0 0.0
2017-Nov-17 19:28N 26°06' W 080°07'0 0.0
2017-Nov-17 18:58N 26°06' W 080°07'0 0.0
2017-Nov-17 18:28N 26°06' W 080°07'0 0.0
2017-Nov-17 17:58N 26°06' W 080°07'0 0.0
2017-Nov-17 17:19N 26°06' W 080°07'0 0.0
2017-Nov-17 16:49N 26°06' W 080°07'0 0.0
2017-Nov-17 16:22N 26°06' W 080°07'0 0.0
2017-Nov-17 15:52N 26°06' W 080°07'0 0.0
2017-Nov-17 15:22N 26°06' W 080°07'0 0.0
2017-Nov-17 14:52N 26°06' W 080°07'0 0.0
2017-Nov-17 14:22N 26°06' W 080°07'0 0.0
2017-Nov-17 13:52N 26°06' W 080°07'0 0.0
2017-Nov-17 13:25N 26°06' W 080°07'0 0.0
2017-Nov-17 12:52N 26°06' W 080°07'0 0.0
2017-Nov-17 12:25N 26°06' W 080°07'0 0.0
2017-Nov-17 11:55N 26°06' W 080°07'0 0.0
2017-Nov-17 11:25N 26°06' W 080°07'0 0.0
2017-Nov-17 10:55N 26°06' W 080°07'0 0.0
2017-Nov-17 10:25N 26°06' W 080°07'0 0.0
2017-Nov-17 09:55N 26°06' W 080°07'0 0.0
2017-Nov-17 09:28N 26°06' W 080°07'0 0.0
2017-Nov-17 08:58N 26°06' W 080°07'0 0.0
2017-Nov-17 08:28N 26°06' W 080°07'0 0.0
2017-Nov-17 07:58N 26°06' W 080°07'0 0.0
2017-Nov-17 07:28N 26°06' W 080°07'0 0.0
2017-Nov-17 06:58N 26°06' W 080°07'0 0.0
2017-Nov-17 06:28N 26°06' W 080°07'0 0.0
2017-Nov-17 05:58N 26°06' W 080°07'0 0.0
2017-Nov-17 05:28N 26°06' W 080°07'0 0.0
2017-Nov-17 04:58N 26°06' W 080°07'0 0.0
2017-Nov-17 04:28N 26°06' W 080°07'0 0.0
2017-Nov-17 03:58N 26°06' W 080°07'0 0.0
2017-Nov-17 03:19N 26°06' W 080°07'0 0.0
2017-Nov-17 02:49N 26°06' W 080°07'0 0.0
2017-Nov-17 02:28N 26°06' W 080°07'0 0.0
2017-Nov-17 01:46N 26°06' W 080°07'0 0.0
2017-Nov-17 01:22N 26°06' W 080°07'0 0.0
2017-Nov-17 00:52N 26°06' W 080°07'0 0.0
2017-Nov-17 00:22N 26°06' W 080°07'0 0.0
2017-Nov-16 23:52N 26°06' W 080°07'0 0.0
2017-Nov-16 23:22N 26°06' W 080°07'0 0.0
2017-Nov-16 22:55N 26°06' W 080°07'0 0.0
2017-Nov-16 22:29N 26°06' W 080°07'0 0.9
2017-Nov-16 22:00N 26°06' W 080°07'4 7.0
2017-Nov-16 21:30N 26°06' W 080°03'3 6.6
2017-Nov-16 21:00N 26°05' W 079°59'3 5.0
2017-Nov-16 20:30N 26°03' W 080°02'0 0.7
2017-Nov-16 20:00N 26°04' W 080°02'0 0.5
2017-Nov-16 19:30N 26°04' W 080°02'0 0.6
2017-Nov-16 19:00N 26°04' W 080°02'0 0.2
2017-Nov-16 18:30N 26°03' W 080°02'1 2.1
2017-Nov-16 18:00N 26°04' W 080°02'1 2.2
2017-Nov-16 17:30N 26°06' W 080°03'1 1.3
2017-Nov-16 17:00N 26°06' W 080°02'1 1.1
2017-Nov-16 16:30N 26°06' W 080°02'3 5.2
2017-Nov-16 16:00N 26°03' W 080°02'4 8.9
2017-Nov-16 15:30N 25°59' W 080°01'5 9.1
2017-Nov-16 15:00N 25°54' W 080°01'510.9
2017-Nov-16 14:30N 25°49' W 080°00'611.7
2017-Nov-16 14:00N 25°43' W 079°60'612.0
2017-Nov-16 13:30N 25°37' W 079°59'712.2
2017-Nov-16 12:58N 25°30' W 079°60'  
2017-Nov-10 23:01N 27°37' W 082°41'7 9.8
2017-Nov-10 22:19N 27°41' W 082°35'310.1
2017-Nov-10 22:00N 27°43' W 082°32'4 8.2
2017-Nov-10 21:30N 27°47' W 082°33'4 6.8
2017-Nov-10 20:51N 27°52' W 082°33'0 0.5
2017-Nov-10 20:27N 27°52' W 082°33'0 0.0
2017-Nov-10 19:57N 27°52' W 082°33'0 0.0
2017-Nov-10 19:27N 27°52' W 082°33'0 0.0
2017-Nov-10 18:57N 27°52' W 082°33'0 0.0
2017-Nov-10 18:21N 27°52' W 082°33'0 0.0
2017-Nov-10 17:57N 27°52' W 082°33'0 0.0
2017-Nov-10 17:27N 27°52' W 082°33'0 0.0
2017-Nov-10 16:57N 27°52' W 082°33'0 0.0
2017-Nov-10 16:03N 27°52' W 082°33'0 0.0
2017-Nov-10 15:39N 27°52' W 082°33'0 0.0
2017-Nov-10 15:27N 27°52' W 082°33'0 0.0
2017-Nov-10 11:12N 27°52' W 082°33'0 0.0
2017-Nov-10 09:30N 27°52' W 082°33'0 0.0
2017-Nov-10 08:42N 27°52' W 082°33'0 0.0
2017-Nov-10 07:48N 27°52' W 082°33'0 0.0
2017-Nov-10 07:30N 27°52' W 082°33'0 0.0
2017-Nov-10 07:00N 27°52' W 082°33'0 0.0
2017-Nov-10 06:18N 27°52' W 082°33'0 0.0
2017-Nov-10 05:48N 27°52' W 082°33'0 0.0
2017-Nov-10 05:30N 27°52' W 082°33'0 0.0
2017-Nov-10 04:36N 27°52' W 082°33'0 0.0
2017-Nov-10 04:30N 27°52' W 082°33'0 0.0
2017-Nov-10 03:54N 27°52' W 082°33'0 0.0
2017-Nov-10 03:18N 27°52' W 082°33'0 0.0
2017-Nov-10 02:45N 27°52' W 082°33'0 0.0
2017-Nov-10 02:29N 27°52' W 082°33'0 0.3
2017-Nov-10 02:00N 27°52' W 082°33'1 3.0
2017-Nov-10 01:30N 27°50' W 082°34'3 5.9
2017-Nov-10 01:00N 27°47' W 082°33'510.4
2017-Nov-10 00:30N 27°48' W 082°28'510.3
2017-Nov-10 00:00N 27°53' W 082°26'2 3.4
2017-Nov-09 23:30N 27°55' W 082°27'0 0.4
2017-Nov-09 22:59N 27°55' W 082°27'0 0.0
2017-Nov-09 22:29N 27°55' W 082°27'0 0.0
2017-Nov-09 21:59N 27°55' W 082°27'0 0.0
2017-Nov-09 21:29N 27°55' W 082°27'0 0.0
2017-Nov-09 20:59N 27°55' W 082°27'0 0.0
2017-Nov-09 20:29N 27°55' W 082°27'0 0.0
2017-Nov-09 19:59N 27°55' W 082°27'0 0.0
2017-Nov-09 19:29N 27°55' W 082°27'0 0.0
2017-Nov-09 18:59N 27°55' W 082°27'0 0.0
2017-Nov-09 18:29N 27°55' W 082°27'0 0.0
2017-Nov-09 17:59N 27°55' W 082°27'0 0.0
2017-Nov-09 17:29N 27°55' W 082°27'0 0.0
2017-Nov-09 16:59N 27°55' W 082°27'0 0.0
2017-Nov-09 16:29N 27°55' W 082°27'0 0.0
2017-Nov-09 15:59N 27°55' W 082°27'0 0.0
2017-Nov-09 15:29N 27°55' W 082°27'0 0.0
2017-Nov-09 14:59N 27°55' W 082°27'0 0.0
2017-Nov-09 14:26N 27°55' W 082°27'0 0.0
2017-Nov-09 13:59N 27°55' W 082°27'0 0.0
2017-Nov-09 13:29N 27°55' W 082°27'0 0.0
2017-Nov-09 12:59N 27°55' W 082°27'0 0.0
2017-Nov-09 12:29N 27°55' W 082°27'0 0.0
2017-Nov-09 11:59N 27°55' W 082°27'0 0.0
2017-Nov-09 11:29N 27°55' W 082°27'0 0.0
2017-Nov-09 10:59N 27°55' W 082°27'0 0.0
2017-Nov-09 10:29N 27°55' W 082°27'0 0.0
2017-Nov-09 09:59N 27°55' W 082°27'0 0.0
2017-Nov-09 09:29N 27°55' W 082°27'0 0.0
2017-Nov-09 08:59N 27°55' W 082°27'0 0.0
2017-Nov-09 08:29N 27°55' W 082°27'0 0.0
2017-Nov-09 07:59N 27°55' W 082°27'0 0.0
2017-Nov-09 07:29N 27°55' W 082°27'0 0.0
2017-Nov-09 06:59N 27°55' W 082°27'0 0.0
2017-Nov-09 06:29N 27°55' W 082°27'0 0.0
2017-Nov-09 05:59N 27°55' W 082°27'0 0.0
2017-Nov-09 05:31N 27°55' W 082°27'1 2.9
2017-Nov-09 05:00N 27°53' W 082°26'510.0
2017-Nov-09 04:29N 27°48' W 082°28'5 9.5
2017-Nov-09 04:00N 27°45' W 082°31'510.4
2017-Nov-09 03:30N 27°41' W 082°35'510.7
2017-Nov-09 03:00N 27°37' W 082°39'510.7
2017-Nov-09 02:30N 27°36' W 082°45'510.8
2017-Nov-09 02:00N 27°36' W 082°51'611.0
2017-Nov-09 01:30N 27°36' W 082°57'20 9.9
2017-Nov-08 23:30N 27°42' W 083°19'  

Dump ship's entire track history